Time;durP1;ratioP1;P1;durP2;ratioP2;P2;SDS_P1;SDS_P2;PMS_P1;PMS_P2;Temp;Humidity;BMP_temperature;BMP_pressure;BME280_temperature;BME280_humidity;BME280_pressure;Samples;Min_cycle;Max_cycle;Signal;HPM_P1;HPM_P2
2022/06/25 00:00:26;;;;;;;2.57;2.37;;;16.40;99.90;;;;;;5099713;28;20174;-45
2022/06/25 00:02:51;;;;;;;2.87;2.37;;;16.30;99.90;;;;;;5100862;28;20273;-45
2022/06/25 00:05:29;;;;;;;4.10;2.90;;;16.20;99.90;;;;;;5101387;28;20182;-44
2022/06/25 00:07:56;;;;;;;2.73;2.33;;;16.30;99.90;;;;;;5100249;28;20238;-47
2022/06/25 00:10:22;;;;;;;2.40;2.20;;;16.30;99.90;;;;;;5099419;28;20434;-50
2022/06/25 00:12:48;;;;;;;4.37;2.43;;;16.20;99.90;;;;;;5100168;28;20463;-46
2022/06/25 00:15:14;;;;;;;3.40;2.60;;;16.20;99.90;;;;;;5100379;28;20420;-48
2022/06/25 00:17:40;;;;;;;2.63;2.40;;;16.20;99.90;;;;;;5099795;28;20712;-49
2022/06/25 00:20:07;;;;;;;3.07;2.50;;;16.20;99.90;;;;;;5098838;28;20177;-50
2022/06/25 00:22:33;;;;;;;3.20;2.37;;;16.20;99.90;;;;;;5100583;28;20181;-49
2022/06/25 00:24:58;;;;;;;2.63;2.43;;;16.30;99.90;;;;;;5099915;28;20734;-45
2022/06/25 00:27:24;;;;;;;4.20;2.93;;;16.30;99.90;;;;;;5098401;28;20419;-44
2022/06/25 00:29:50;;;;;;;3.53;2.40;;;16.30;99.90;;;;;;5099361;28;20228;-43
2022/06/25 00:32:16;;;;;;;2.40;2.20;;;16.30;99.90;;;;;;5099851;28;20288;-43
2022/06/25 00:34:42;;;;;;;5.20;2.80;;;16.20;99.90;;;;;;5100553;28;20192;-44
2022/06/25 00:37:07;;;;;;;3.50;2.70;;;16.20;99.90;;;;;;5100397;28;20828;-44
2022/06/25 00:39:34;;;;;;;3.40;3.10;;;16.10;99.90;;;;;;5100064;28;20527;-42
2022/06/25 00:42:00;;;;;;;2.87;2.13;;;16.00;99.90;;;;;;5100305;28;20516;-44
2022/06/25 00:44:29;;;;;;;2.40;2.20;;;15.80;99.90;;;;;;5100172;28;20557;-43
2022/06/25 00:46:55;;;;;;;2.87;2.63;;;15.80;99.90;;;;;;5099985;28;20221;-44
2022/06/25 00:49:21;;;;;;;3.00;2.30;;;15.70;99.90;;;;;;5100056;28;20921;-42
2022/06/25 00:51:48;;;;;;;2.87;2.67;;;15.70;99.90;;;;;;5098772;28;20169;-44
2022/06/25 00:54:13;;;;;;;3.80;2.90;;;15.70;99.90;;;;;;5100205;28;20214;-44
2022/06/25 00:56:48;;;;;;;3.30;2.97;;;15.70;99.90;;;;;;5097411;28;20431;-44
2022/06/25 00:59:15;;;;;;;3.00;2.70;;;15.60;99.90;;;;;;5098970;28;20192;-43
2022/06/25 01:01:40;;;;;;;7.20;3.30;;;15.50;99.90;;;;;;5098672;28;20720;-43
2022/06/25 01:04:06;;;;;;;3.00;2.80;;;15.50;99.90;;;;;;5098808;28;20473;-43
2022/06/25 01:06:31;;;;;;;6.00;3.63;;;15.50;99.90;;;;;;5098839;28;20234;-42
2022/06/25 01:08:58;;;;;;;4.33;2.30;;;15.50;99.90;;;;;;5097580;28;20559;-42
2022/06/25 01:11:24;;;;;;;3.40;3.10;;;15.40;99.90;;;;;;5097699;28;20469;-42
2022/06/25 01:13:52;;;;;;;3.00;2.80;;;15.30;99.90;;;;;;5081041;28;20447;-42
2022/06/25 01:16:18;;;;;;;2.70;2.50;;;15.30;99.90;;;;;;5099208;28;20526;-45
2022/06/25 01:18:44;;;;;;;3.17;2.67;;;15.20;99.90;;;;;;5099672;28;20572;-41
2022/06/25 01:21:10;;;;;;;3.60;3.30;;;15.20;99.90;;;;;;5099323;28;20534;-42
2022/06/25 01:23:35;;;;;;;3.07;2.87;;;15.20;99.90;;;;;;5097947;28;20211;-47
2022/06/25 01:26:01;;;;;;;3.03;2.83;;;15.20;99.90;;;;;;5098800;28;20423;-42
2022/06/25 01:28:27;;;;;;;5.80;3.03;;;15.20;99.90;;;;;;5100117;28;20232;-44
2022/06/25 01:30:52;;;;;;;2.93;2.70;;;15.20;99.90;;;;;;5098486;28;20381;-42
2022/06/25 01:33:19;;;;;;;5.23;2.73;;;15.30;99.90;;;;;;5099275;28;20185;-43
2022/06/25 01:35:44;;;;;;;4.07;3.77;;;15.30;99.90;;;;;;5099024;28;20468;-42
2022/06/25 01:38:10;;;;;;;3.87;2.97;;;15.20;99.90;;;;;;5098859;28;20252;-42
2022/06/25 01:40:35;;;;;;;5.37;2.93;;;15.10;99.90;;;;;;5097734;28;20187;-44
2022/06/25 01:46:23;;;;;;;3.10;2.90;;;15.00;99.90;;;;;;5097255;28;20530;-42
2022/06/25 01:48:49;;;;;;;3.53;2.93;;;14.90;99.90;;;;;;5098024;28;20466;-42
2022/06/25 01:51:16;;;;;;;6.67;3.30;;;14.90;99.90;;;;;;5096423;28;20173;-43
2022/06/25 01:53:42;;;;;;;5.10;3.13;;;14.90;99.90;;;;;;5095353;28;20425;-42
2022/06/25 01:56:08;;;;;;;5.40;3.47;;;14.90;99.90;;;;;;5096686;28;20430;-44
2022/06/25 01:58:34;;;;;;;3.30;2.90;;;14.90;99.90;;;;;;5097138;28;20411;-41
2022/06/25 02:01:00;;;;;;;5.23;3.30;;;14.90;99.90;;;;;;5097055;28;20526;-42
2022/06/25 02:03:26;;;;;;;5.37;4.00;;;14.80;99.90;;;;;;5096884;28;20561;-41
2022/06/25 02:05:58;;;;;;;7.63;3.10;;;14.80;99.90;;;;;;5097409;28;20404;-46
2022/06/25 02:08:29;;;;;;;6.10;3.30;;;14.70;99.90;;;;;;5097938;28;20693;-43
2022/06/25 02:10:56;;;;;;;5.40;3.10;;;14.70;99.90;;;;;;5097721;28;20422;-42
2022/06/25 02:13:22;;;;;;;6.93;3.47;;;14.70;99.90;;;;;;5097416;28;20419;-43
2022/06/25 02:15:48;;;;;;;3.23;2.93;;;14.70;99.90;;;;;;5096904;28;20411;-42
2022/06/25 02:18:13;;;;;;;3.40;3.10;;;14.70;99.90;;;;;;5098208;28;20175;-44
2022/06/25 02:20:40;;;;;;;3.50;3.20;;;14.70;99.90;;;;;;5097032;28;20173;-44
2022/06/25 02:23:07;;;;;;;3.67;3.37;;;14.70;99.90;;;;;;5096874;28;20473;-44
2022/06/25 02:25:32;;;;;;;3.37;3.07;;;14.70;99.90;;;;;;5097262;28;20923;-43
2022/06/25 02:27:58;;;;;;;3.53;3.23;;;14.60;99.90;;;;;;5096129;28;20586;-42
2022/06/25 02:30:24;;;;;;;3.70;3.40;;;14.60;99.90;;;;;;5098217;28;20177;-43
2022/06/25 02:32:49;;;;;;;4.23;2.77;;;14.60;99.90;;;;;;5098034;28;20204;-42
2022/06/25 02:35:15;;;;;;;4.90;3.30;;;14.60;99.90;;;;;;5096742;28;20177;-45
2022/06/25 02:37:41;;;;;;;5.80;3.00;;;14.60;99.90;;;;;;5098119;28;20172;-43
2022/06/25 02:40:07;;;;;;;3.83;3.47;;;14.50;99.90;;;;;;5097799;28;20182;-42
2022/06/25 02:42:37;;;;;;;3.07;2.87;;;14.60;99.90;;;;;;5098089;28;20226;-45
2022/06/25 02:45:04;;;;;;;3.93;3.60;;;14.60;99.90;;;;;;5097731;28;20412;-43
2022/06/25 02:47:29;;;;;;;4.20;3.90;;;14.60;99.90;;;;;;5097993;28;20419;-42
2022/06/25 02:49:55;;;;;;;3.27;2.97;;;14.60;99.90;;;;;;5097153;28;20438;-42
2022/06/25 02:52:21;;;;;;;4.00;3.07;;;14.60;99.90;;;;;;5097262;28;20243;-42
2022/06/25 02:54:46;;;;;;;7.03;3.80;;;14.60;99.90;;;;;;5096002;28;20581;-42
2022/06/25 02:59:56;;;;;;;3.20;3.00;;;14.70;99.90;;;;;;5097539;28;20627;-42
2022/06/25 03:02:22;;;;;;;4.20;3.03;;;14.60;99.90;;;;;;5097577;28;20450;-42
2022/06/25 03:04:48;;;;;;;3.40;3.10;;;14.60;99.90;;;;;;5097285;28;20675;-42
2022/06/25 03:07:14;;;;;;;3.40;3.10;;;14.60;99.90;;;;;;5095596;28;20242;-42
2022/06/25 03:09:39;;;;;;;5.40;3.53;;;14.60;99.90;;;;;;5096132;28;20390;-42
2022/06/25 03:12:05;;;;;;;3.40;3.10;;;14.60;99.90;;;;;;5095709;28;20267;-43
2022/06/25 03:14:31;;;;;;;2.97;2.77;;;14.60;99.90;;;;;;5096507;28;20205;-48
2022/06/25 03:16:57;;;;;;;3.37;3.07;;;14.50;99.90;;;;;;5097969;28;20815;-46
2022/06/25 03:19:22;;;;;;;3.67;2.90;;;14.50;99.90;;;;;;5098153;28;20188;-43
2022/06/25 03:21:48;;;;;;;3.70;3.40;;;14.50;99.90;;;;;;5097735;28;20180;-42
2022/06/25 03:24:14;;;;;;;3.43;3.23;;;14.50;99.90;;;;;;5097788;28;20609;-42
2022/06/25 03:26:40;;;;;;;3.63;3.33;;;14.50;99.90;;;;;;5097506;28;20263;-44
2022/06/25 03:29:05;;;;;;;4.33;3.50;;;14.60;99.90;;;;;;5097730;28;20404;-43
2022/06/25 03:31:31;;;;;;;3.77;3.47;;;14.60;99.90;;;;;;5098817;28;20289;-44
2022/06/25 03:33:57;;;;;;;4.43;3.40;;;14.70;99.90;;;;;;5101321;28;20172;-43
2022/06/25 03:36:23;;;;;;;6.33;3.43;;;14.70;99.90;;;;;;5101780;28;20243;-41
2022/06/25 03:38:49;;;;;;;5.13;3.00;;;14.70;99.90;;;;;;5099929;28;20446;-42
2022/06/25 03:41:32;;;;;;;3.60;3.30;;;14.70;99.90;;;;;;5100222;28;20491;-42
2022/06/25 03:44:03;;;;;;;3.63;3.33;;;14.70;99.90;;;;;;5100604;28;20296;-43
2022/06/25 03:46:29;;;;;;;3.60;3.30;;;14.60;99.90;;;;;;5101281;28;20425;-41
2022/06/25 03:48:54;;;;;;;4.30;3.10;;;14.70;99.90;;;;;;5100871;28;20415;-42
2022/06/25 03:51:20;;;;;;;3.63;3.23;;;14.60;99.90;;;;;;5100831;28;20502;-44
2022/06/25 03:53:46;;;;;;;2.90;2.70;;;14.70;99.90;;;;;;5099622;28;20175;-44
2022/06/25 03:56:12;;;;;;;3.60;3.30;;;14.70;99.90;;;;;;5100985;28;20181;-41
2022/06/25 03:58:38;;;;;;;4.53;3.30;;;14.80;99.90;;;;;;5100719;28;20258;-43
2022/06/25 04:01:03;;;;;;;3.00;2.80;;;14.90;99.90;;;;;;5099072;28;20809;-43
2022/06/25 04:03:30;;;;;;;2.93;2.70;;;14.90;99.90;;;;;;5098218;28;20477;-43
2022/06/25 04:05:56;;;;;;;4.43;3.03;;;14.80;99.90;;;;;;5098898;28;20200;-42
2022/06/25 04:08:22;;;;;;;3.83;3.03;;;14.80;99.90;;;;;;5100079;28;20827;-44
2022/06/25 04:10:47;;;;;;;4.77;3.10;;;14.80;99.90;;;;;;5099384;28;20502;-42
2022/06/25 04:13:13;;;;;;;3.30;3.00;;;14.80;99.90;;;;;;5099278;28;20190;-44
2022/06/25 04:15:39;;;;;;;3.20;2.90;;;14.80;99.90;;;;;;5099573;28;20181;-43
2022/06/25 04:18:05;;;;;;;3.00;2.80;;;14.80;99.90;;;;;;5100750;28;20271;-42
2022/06/25 04:20:32;;;;;;;2.97;2.77;;;14.90;99.90;;;;;;5100216;28;20701;-43
2022/06/25 04:22:57;;;;;;;3.43;3.13;;;15.00;99.90;;;;;;5099943;28;20470;-46
2022/06/25 04:25:23;;;;;;;3.50;3.30;;;15.10;99.90;;;;;;5100533;28;20426;-41
2022/06/25 04:30:33;;;;;;;3.20;3.00;;;15.20;99.90;;;;;;5097713;28;20375;-44
2022/06/25 04:32:59;;;;;;;4.60;3.57;;;15.30;99.90;;;;;;5097499;28;20766;-44
2022/06/25 04:35:24;;;;;;;3.33;2.80;;;15.30;99.90;;;;;;5097094;28;20176;-46
2022/06/25 04:37:50;;;;;;;4.27;3.20;;;15.40;99.90;;;;;;5097097;28;20184;-48
2022/06/25 04:40:16;;;;;;;3.10;2.60;;;15.60;99.90;;;;;;5096511;28;20169;-46
2022/06/25 04:42:42;;;;;;;6.63;3.00;;;15.60;99.90;;;;;;5096327;28;20177;-46
2022/06/25 04:45:08;;;;;;;3.33;3.03;;;15.70;99.90;;;;;;5097451;28;20411;-45
2022/06/25 04:47:34;;;;;;;4.10;3.13;;;15.80;99.90;;;;;;5096260;28;20332;-45
2022/06/25 04:49:59;;;;;;;3.53;3.23;;;15.80;99.90;;;;;;5096936;28;20518;-48
2022/06/25 04:52:25;;;;;;;3.23;2.93;;;15.80;99.90;;;;;;5098206;28;20491;-46
2022/06/25 04:54:51;;;;;;;2.63;2.40;;;15.90;99.90;;;;;;5098873;28;20173;-46
2022/06/25 04:57:16;;;;;;;3.30;3.00;;;15.90;99.90;;;;;;5098286;28;20196;-44
2022/06/25 04:59:42;;;;;;;6.47;3.13;;;16.00;99.90;;;;;;5099198;28;20238;-45
2022/06/25 05:02:08;;;;;;;2.90;2.70;;;16.00;99.90;;;;;;5099193;28;20181;-44
2022/06/25 05:04:33;;;;;;;2.50;2.30;;;16.10;99.90;;;;;;5099450;28;20208;-45
2022/06/25 05:07:00;;;;;;;2.87;2.30;;;16.10;99.90;;;;;;5098274;28;20209;-45
2022/06/25 05:09:26;;;;;;;3.87;2.57;;;16.10;99.90;;;;;;5096624;28;20177;-44
2022/06/25 05:11:52;;;;;;;3.07;2.10;;;16.20;99.90;;;;;;5097000;28;20423;-46
2022/06/25 05:14:18;;;;;;;2.50;2.30;;;16.30;99.90;;;;;;5096935;28;20503;-45
2022/06/25 05:16:45;;;;;;;2.37;2.17;;;16.30;99.90;;;;;;5096305;28;20551;-45
2022/06/25 05:19:11;;;;;;;2.53;2.33;;;16.50;99.90;;;;;;5097280;28;20258;-45
2022/06/25 05:21:37;;;;;;;3.00;2.33;;;16.60;99.90;;;;;;5097284;28;20783;-45
2022/06/25 05:24:04;;;;;;;2.60;2.13;;;16.70;99.90;;;;;;5099033;28;20747;-45
2022/06/25 05:26:29;;;;;;;2.87;2.40;;;16.80;99.90;;;;;;5098053;28;20427;-44
2022/06/25 05:28:55;;;;;;;2.33;2.13;;;17.00;99.90;;;;;;5098681;28;20828;-44
2022/06/25 05:31:21;;;;;;;2.47;2.00;;;17.10;99.90;;;;;;5098376;28;20625;-45
2022/06/25 05:33:46;;;;;;;2.40;2.07;;;17.20;99.90;;;;;;5098251;28;20471;-45
2022/06/25 05:36:12;;;;;;;2.30;2.10;;;17.20;99.90;;;;;;5082454;28;20193;-46
2022/06/25 05:38:38;;;;;;;1.87;1.77;;;17.30;99.90;;;;;;5076547;28;20183;-46
2022/06/25 05:41:08;;;;;;;2.43;2.20;;;17.40;99.90;;;;;;5078122;28;20189;-48
2022/06/25 05:43:38;;;;;;;2.40;1.90;;;17.40;99.90;;;;;;5076985;28;20256;-45
2022/06/25 05:46:03;;;;;;;2.40;1.93;;;17.40;99.90;;;;;;5076866;28;20403;-44
2022/06/25 05:48:29;;;;;;;2.57;2.07;;;17.40;99.90;;;;;;5076731;28;20430;-47
2022/06/25 05:50:56;;;;;;;2.30;2.10;;;17.40;99.90;;;;;;5078308;28;20412;-45
2022/06/25 05:53:23;;;;;;;1.67;1.57;;;17.40;99.90;;;;;;5075897;28;20440;-46
2022/06/25 05:55:49;;;;;;;3.63;1.93;;;17.50;99.90;;;;;;5076277;28;20423;-47
2022/06/25 05:58:15;;;;;;;4.17;1.97;;;17.60;99.90;;;;;;5075984;28;20432;-44
2022/06/25 06:00:40;;;;;;;2.10;1.90;;;17.70;99.90;;;;;;5076732;28;20520;-48
2022/06/25 06:03:06;;;;;;;3.10;2.10;;;17.80;99.90;;;;;;5074625;28;20213;-46
2022/06/25 06:05:32;;;;;;;6.77;2.00;;;17.90;99.90;;;;;;5084753;28;20182;-45
2022/06/25 06:07:57;;;;;;;4.33;1.60;;;18.00;99.90;;;;;;5076290;28;20174;-46
2022/06/25 06:10:23;;;;;;;3.90;1.67;;;17.90;99.90;;;;;;5075896;28;20178;-45
2022/06/25 06:12:49;;;;;;;3.70;2.60;;;18.00;99.90;;;;;;5075751;28;20197;-47
2022/06/25 06:15:14;;;;;;;2.67;2.40;;;17.90;99.90;;;;;;5074715;28;20633;-47
2022/06/25 06:17:41;;;;;;;1.80;1.70;;;18.00;99.90;;;;;;5057415;28;20184;-44
2022/06/25 06:20:07;;;;;;;2.27;1.93;;;18.20;99.90;;;;;;5074345;28;20428;-47
2022/06/25 06:22:33;;;;;;;2.43;1.63;;;18.20;99.90;;;;;;5073499;28;20413;-45
2022/06/25 06:24:59;;;;;;;2.27;2.00;;;18.30;99.90;;;;;;5073989;28;20471;-47
2022/06/25 06:27:25;;;;;;;2.63;1.80;;;18.40;99.90;;;;;;5074615;28;20440;-45
2022/06/25 06:29:50;;;;;;;1.60;1.43;;;18.60;99.90;;;;;;5075238;28;20435;-45
2022/06/25 06:32:16;;;;;;;2.03;1.83;;;18.80;99.90;;;;;;5076185;28;20626;-44
2022/06/25 06:34:43;;;;;;;1.47;1.37;;;19.00;99.10;;;;;;5075223;28;20452;-45
2022/06/25 06:37:09;;;;;;;1.80;1.70;;;18.80;99.00;;;;;;5077456;28;20229;-45
2022/06/25 06:39:35;;;;;;;3.10;1.90;;;18.90;98.80;;;;;;5076340;28;20713;-46
2022/06/25 06:42:01;;;;;;;4.37;1.80;;;19.10;98.70;;;;;;5075517;28;20423;-46
2022/06/25 06:44:27;;;;;;;1.77;1.50;;;19.20;98.80;;;;;;5076458;28;20476;-46
2022/06/25 06:46:52;;;;;;;1.97;1.60;;;19.20;98.20;;;;;;5077601;28;20417;-47
2022/06/25 06:49:18;;;;;;;1.50;1.40;;;19.20;98.20;;;;;;5093414;28;20554;-44
2022/06/25 06:51:44;;;;;;;2.40;2.00;;;19.30;98.10;;;;;;5096422;28;20186;-48
2022/06/25 06:54:10;;;;;;;4.33;2.27;;;19.40;98.00;;;;;;5094196;28;20184;-46
2022/06/25 06:56:35;;;;;;;1.70;1.60;;;19.40;98.30;;;;;;5095221;28;20414;-44
2022/06/25 06:59:02;;;;;;;2.83;1.77;;;19.70;98.20;;;;;;5093679;28;20199;-45
2022/06/25 07:01:27;;;;;;;2.37;1.50;;;20.00;97.90;;;;;;5092545;28;20185;-44
2022/06/25 07:03:53;;;;;;;3.50;1.83;;;20.20;97.30;;;;;;5092268;28;20899;-45
2022/06/25 07:06:19;;;;;;;2.70;1.60;;;20.30;97.10;;;;;;5092749;28;20643;-46
2022/06/25 07:08:44;;;;;;;1.77;1.67;;;20.40;96.60;;;;;;5092874;28;20186;-46
2022/06/25 07:11:28;;;;;;;2.40;1.77;;;20.50;96.70;;;;;;5092680;28;20231;-45
2022/06/25 07:13:56;;;;;;;4.80;2.20;;;20.70;96.40;;;;;;5092282;28;20185;-45
2022/06/25 07:16:21;;;;;;;5.20;2.13;;;21.00;95.40;;;;;;5094470;28;20421;-44
2022/06/25 07:18:47;;;;;;;1.70;1.40;;;21.10;95.00;;;;;;5074820;28;20436;-47
2022/06/25 07:21:14;;;;;;;2.77;1.90;;;21.40;94.60;;;;;;5092856;28;20411;-48
2022/06/25 07:23:39;;;;;;;2.40;2.17;;;21.60;94.50;;;;;;5093682;28;20555;-48
2022/06/25 07:26:05;;;;;;;1.90;1.53;;;21.50;93.60;;;;;;5093770;28;20404;-46
2022/06/25 07:28:31;;;;;;;1.30;1.20;;;21.50;94.00;;;;;;5076078;28;20178;-45
2022/06/25 07:30:56;;;;;;;2.97;2.23;;;21.50;93.60;;;;;;5094694;28;20229;-46
2022/06/25 07:33:22;;;;;;;2.50;1.87;;;21.60;92.90;;;;;;5095491;28;20181;-47
2022/06/25 07:35:48;;;;;;;3.30;1.90;;;21.50;92.60;;;;;;5094843;28;20242;-44
2022/06/25 07:38:13;;;;;;;2.40;1.73;;;21.50;93.10;;;;;;5094886;28;20382;-46
2022/06/25 07:40:39;;;;;;;2.13;1.40;;;21.60;92.80;;;;;;5092535;28;20436;-45
2022/06/25 07:43:05;;;;;;;6.33;2.00;;;21.70;92.50;;;;;;5092699;28;20199;-44
2022/06/25 07:45:32;;;;;;;2.17;1.70;;;21.90;92.30;;;;;;5095770;28;20227;-45
2022/06/25 07:47:58;;;;;;;2.20;2.00;;;22.10;92.10;;;;;;5096251;28;20178;-46
2022/06/25 07:53:08;;;;;;;2.70;1.97;;;22.60;91.90;;;;;;5094288;28;20479;-44
2022/06/25 07:55:34;;;;;;;2.53;1.93;;;22.50;90.70;;;;;;5094636;28;20750;-43
2022/06/25 07:57:59;;;;;;;7.90;3.47;;;22.70;91.30;;;;;;5093409;28;20182;-45
2022/06/25 08:00:25;;;;;;;3.33;2.70;;;23.00;91.00;;;;;;5094339;28;20442;-46
2022/06/25 08:02:51;;;;;;;5.90;3.50;;;23.40;90.00;;;;;;5092634;28;20359;-44
2022/06/25 08:05:17;;;;;;;5.80;2.80;;;23.60;88.40;;;;;;5092960;28;20198;-44
2022/06/25 08:07:42;;;;;;;3.40;2.07;;;23.70;87.40;;;;;;5092455;28;20404;-46
2022/06/25 08:10:08;;;;;;;5.83;3.53;;;23.80;87.30;;;;;;5094048;28;20182;-45
2022/06/25 08:12:34;;;;;;;3.63;2.70;;;23.60;87.30;;;;;;5094067;28;20184;-46
2022/06/25 08:15:00;;;;;;;2.80;2.47;;;23.30;88.60;;;;;;5093241;28;20270;-44
2022/06/25 08:17:26;;;;;;;3.40;2.80;;;23.20;89.20;;;;;;5095424;28;20453;-52
2022/06/25 08:19:52;;;;;;;3.20;1.87;;;23.10;90.00;;;;;;5097058;28;20457;-44
2022/06/25 08:22:17;;;;;;;5.27;2.10;;;23.20;90.10;;;;;;5098480;28;20817;-45
2022/06/25 08:24:43;;;;;;;6.87;2.80;;;23.40;90.50;;;;;;5097863;28;20198;-46
2022/06/25 08:27:10;;;;;;;2.20;2.00;;;23.40;90.00;;;;;;5098406;28;20581;-44
2022/06/25 08:29:36;;;;;;;2.37;2.17;;;23.20;89.80;;;;;;5097898;28;20194;-43
2022/06/25 08:32:03;;;;;;;2.30;2.10;;;23.50;90.20;;;;;;5096601;28;20466;-45
2022/06/25 08:34:28;;;;;;;4.90;2.53;;;23.60;88.70;;;;;;5095352;28;20418;-47
2022/06/25 08:36:54;;;;;;;2.83;2.00;;;23.70;87.40;;;;;;5093839;28;20434;-46
2022/06/25 08:39:21;;;;;;;2.20;2.00;;;24.00;87.00;;;;;;5096089;28;20210;-44
2022/06/25 08:41:46;;;;;;;3.07;2.80;;;24.00;86.00;;;;;;5096921;28;20428;-45
2022/06/25 08:44:12;;;;;;;3.27;2.80;;;23.90;86.40;;;;;;5095070;28;20503;-47
2022/06/25 08:46:38;;;;;;;2.97;2.20;;;23.90;87.20;;;;;;5095948;28;20456;-44
2022/06/25 08:49:04;;;;;;;2.47;2.27;;;23.60;87.00;;;;;;5096541;28;20251;-51
2022/06/25 08:51:31;;;;;;;15.67;5.70;;;23.50;86.20;;;;;;5097518;28;20274;-45
2022/06/25 08:53:56;;;;;;;4.73;2.70;;;23.40;85.60;;;;;;5095766;28;20492;-46
2022/06/25 08:56:23;;;;;;;5.53;2.80;;;23.60;86.30;;;;;;5093845;28;20423;-46
2022/06/25 08:58:49;;;;;;;4.23;2.53;;;23.80;84.80;;;;;;5094626;28;20191;-45
2022/06/25 09:01:15;;;;;;;3.07;2.43;;;24.00;84.20;;;;;;5096490;28;20930;-45
2022/06/25 09:03:41;;;;;;;5.43;2.77;;;24.00;82.40;;;;;;5095678;28;20263;-43
2022/06/25 09:06:21;;;;;;;3.93;2.60;;;23.80;83.90;;;;;;5096519;28;20260;-44
2022/06/25 09:09:12;;;;;;;4.33;2.73;;;23.90;85.30;;;;;;5095278;28;20179;-40
2022/06/25 09:11:54;;;;;;;3.63;2.00;;;24.30;82.20;;;;;;5095027;28;20410;-40
2022/06/25 09:14:28;;;;;;;5.13;2.40;;;24.70;81.40;;;;;;5094818;28;20495;-40
2022/06/25 09:16:56;;;;;;;4.87;2.30;;;24.90;80.40;;;;;;5095093;28;20513;-42
2022/06/25 09:19:36;;;;;;;3.60;2.30;;;25.10;82.20;;;;;;5094212;28;20596;-40
2022/06/25 09:22:29;;;;;;;2.60;2.23;;;25.50;80.10;;;;;;5095999;28;20440;-39
2022/06/25 09:24:57;;;;;;;2.40;2.20;;;25.60;78.70;;;;;;5090052;28;20679;-40
2022/06/25 09:27:33;;;;;;;2.60;2.30;;;25.40;75.20;;;;;;5095669;28;20407;-40
2022/06/25 09:30:08;;;;;;;4.10;2.20;;;25.00;77.00;;;;;;5096346;28;20496;-39
2022/06/25 09:32:58;;;;;;;2.60;1.83;;;24.90;77.20;;;;;;5095003;28;20463;-39
2022/06/25 09:35:43;;;;;;;3.53;2.30;;;25.10;77.40;;;;;;5095998;28;20788;-38
2022/06/25 09:38:14;;;;;;;2.67;1.93;;;25.40;76.70;;;;;;5095474;28;20868;-40
2022/06/25 09:40:53;;;;;;;3.80;1.97;;;25.70;79.50;;;;;;5095274;28;20418;-40
2022/06/25 09:43:20;;;;;;;4.80;2.40;;;26.20;74.50;;;;;;5094307;28;20504;-40
2022/06/25 09:45:52;;;;;;;3.17;2.17;;;25.90;72.90;;;;;;5095970;28;20520;-40
2022/06/25 09:48:18;;;;;;;2.50;2.20;;;25.80;75.80;;;;;;5097360;28;20487;-40
2022/06/25 09:50:50;;;;;;;3.07;2.40;;;25.90;73.00;;;;;;5095571;28;20686;-41
2022/06/25 09:53:25;;;;;;;4.20;2.87;;;25.80;72.90;;;;;;5096423;28;20452;-41
2022/06/25 09:55:50;;;;;;;3.10;2.80;;;25.90;73.20;;;;;;5097436;28;20921;-40
2022/06/25 09:58:16;;;;;;;3.40;2.47;;;26.30;73.50;;;;;;5095114;28;20425;-42
2022/06/25 10:00:43;;;;;;;5.03;2.67;;;26.50;71.80;;;;;;5094806;28;20176;-47
2022/06/25 10:03:09;;;;;;;2.37;2.17;;;26.90;68.30;;;;;;5095338;28;20240;-50
2022/06/25 10:05:38;;;;;;;2.50;2.20;;;27.20;68.00;;;;;;5093149;28;20449;-48
2022/06/25 10:08:09;;;;;;;3.60;2.10;;;27.20;63.90;;;;;;5094234;28;20432;-48
2022/06/25 10:10:44;;;;;;;3.93;2.27;;;27.20;63.70;;;;;;5093887;28;20422;-47
2022/06/25 10:13:10;;;;;;;3.80;2.13;;;26.80;62.70;;;;;;5094408;28;20433;-46
2022/06/25 10:15:37;;;;;;;2.50;2.30;;;26.70;64.90;;;;;;5095751;28;20658;-46
2022/06/25 10:18:06;;;;;;;3.03;2.50;;;26.80;66.00;;;;;;5093708;28;20433;-49
2022/06/25 10:20:33;;;;;;;4.43;2.23;;;27.00;64.80;;;;;;5093781;28;20660;-49
2022/06/25 10:23:01;;;;;;;4.77;2.67;;;26.80;64.90;;;;;;5093403;28;20445;-47
2022/06/25 10:25:27;;;;;;;2.47;2.27;;;26.30;64.70;;;;;;5095969;28;20428;-46
2022/06/25 10:28:05;;;;;;;2.50;2.30;;;26.50;65.00;;;;;;5094955;28;20422;-48
2022/06/25 10:30:36;;;;;;;3.13;2.00;;;26.90;65.80;;;;;;5094734;28;20540;-49
2022/06/25 10:33:02;;;;;;;3.37;2.30;;;27.20;61.00;;;;;;5093031;28;20433;-48
2022/06/25 10:35:39;;;;;;;3.37;2.40;;;27.50;60.00;;;;;;5091689;28;20487;-44
2022/06/25 10:38:12;;;;;;;3.40;2.00;;;27.50;57.60;;;;;;5092463;28;20725;-46
2022/06/25 10:40:58;;;;;;;3.07;2.20;;;27.20;56.70;;;;;;5092852;28;20517;-45
2022/06/25 10:43:35;;;;;;;2.00;1.87;;;27.20;58.10;;;;;;5091752;28;20516;-47
2022/06/25 10:46:26;;;;;;;2.60;2.07;;;27.10;57.70;;;;;;5094851;28;20466;-44
2022/06/25 10:48:57;;;;;;;2.63;2.23;;;27.30;58.00;;;;;;5094377;28;20433;-48
2022/06/25 10:51:48;;;;;;;2.33;2.10;;;27.50;57.20;;;;;;5095855;28;20509;-49
2022/06/25 10:54:14;;;;;;;2.43;2.00;;;28.00;57.80;;;;;;5094932;28;20477;-47
2022/06/25 10:56:47;;;;;;;3.07;2.13;;;28.30;55.70;;;;;;5095623;28;20435;-47
2022/06/25 10:59:31;;;;;;;3.20;2.30;;;28.40;55.60;;;;;;5094114;28;20195;-45
2022/06/25 11:01:58;;;;;;;2.40;2.20;;;28.30;54.50;;;;;;5096080;28;20406;-47
2022/06/25 11:04:27;;;;;;;2.30;2.10;;;28.50;53.20;;;;;;5094615;28;20466;-47
2022/06/25 11:07:07;;;;;;;3.20;2.20;;;28.70;52.60;;;;;;5094424;28;20479;-49
2022/06/25 11:09:35;;;;;;;2.93;2.07;;;28.90;52.30;;;;;;5094931;28;20731;-45
2022/06/25 11:12:01;;;;;;;2.57;2.10;;;29.20;52.50;;;;;;5093659;28;20590;-48
2022/06/25 11:14:26;;;;;;;4.30;2.60;;;29.60;52.00;;;;;;5093300;28;20457;-44
2022/06/25 11:16:55;;;;;;;2.60;2.10;;;29.90;50.40;;;;;;5094295;28;20484;-52
2022/06/25 11:19:22;;;;;;;4.33;2.23;;;30.30;49.90;;;;;;5094818;28;20457;-49
2022/06/25 11:21:49;;;;;;;3.60;2.20;;;30.40;48.80;;;;;;5077684;28;20504;-48
2022/06/25 11:24:18;;;;;;;5.63;2.50;;;30.90;49.90;;;;;;5094408;28;20474;-49
2022/06/25 11:29:50;;;;;;;2.87;2.10;;;30.80;47.70;;;;;;5093595;28;20458;-47
2022/06/25 11:32:28;;;;;;;3.40;2.27;;;30.20;47.80;;;;;;5095649;28;20542;-47
2022/06/25 11:34:54;;;;;;;2.20;2.00;;;30.10;49.50;;;;;;5094993;28;20473;-49
2022/06/25 11:37:21;;;;;;;2.70;2.20;;;30.30;48.00;;;;;;5096329;28;20417;-49
2022/06/25 11:39:47;;;;;;;5.43;2.50;;;30.50;48.10;;;;;;5096056;28;20433;-47
2022/06/25 11:42:14;;;;;;;2.03;1.80;;;30.20;47.60;;;;;;5094169;28;20407;-47
2022/06/25 11:44:54;;;;;;;3.30;2.07;;;29.90;47.20;;;;;;5094321;28;20481;-48
2022/06/25 11:47:22;;;;;;;4.47;3.17;;;29.70;47.40;;;;;;5094189;28;20401;-50
2022/06/25 11:49:48;;;;;;;2.87;2.27;;;29.70;47.30;;;;;;5092875;28;20409;-48
2022/06/25 11:52:16;;;;;;;3.80;2.37;;;30.10;47.90;;;;;;5096378;28;20442;-47
2022/06/25 11:54:43;;;;;;;4.27;2.00;;;30.90;48.50;;;;;;5096632;28;20713;-46
2022/06/25 11:57:21;;;;;;;3.63;1.97;;;31.30;45.00;;;;;;5096195;28;20387;-46
2022/06/25 11:59:48;;;;;;;2.07;1.60;;;31.40;44.00;;;;;;5095856;28;20841;-48
2022/06/25 12:02:14;;;;;;;2.33;1.93;;;31.60;45.00;;;;;;5095974;28;20805;-50
2022/06/25 12:04:57;;;;;;;2.53;2.03;;;31.80;45.00;;;;;;5097321;28;20491;-44
2022/06/25 12:07:22;;;;;;;2.67;2.23;;;31.10;45.30;;;;;;5097432;28;20388;-49
2022/06/25 12:09:51;;;;;;;2.80;1.90;;;30.90;46.60;;;;;;5095535;28;20561;-44
2022/06/25 12:12:17;;;;;;;3.20;2.17;;;30.90;44.70;;;;;;5094619;28;20176;-47
2022/06/25 12:14:43;;;;;;;1.90;1.70;;;30.50;45.10;;;;;;5095844;28;20683;-49
2022/06/25 12:17:11;;;;;;;2.07;1.87;;;30.10;45.80;;;;;;5094825;28;20462;-49
2022/06/25 12:19:45;;;;;;;1.70;1.60;;;30.20;45.70;;;;;;5093501;28;20460;-50
2022/06/25 12:22:24;;;;;;;1.90;1.70;;;30.60;43.40;;;;;;5094704;28;20940;-49
2022/06/25 12:24:52;;;;;;;2.37;1.67;;;31.10;44.90;;;;;;5095450;28;20446;-47
2022/06/25 12:27:18;;;;;;;2.20;2.00;;;31.10;43.90;;;;;;5095832;28;20382;-45
2022/06/25 12:29:53;;;;;;;2.03;1.70;;;30.80;44.80;;;;;;5098613;28;20508;-46
2022/06/25 12:32:19;;;;;;;3.37;1.80;;;30.60;44.70;;;;;;5095775;28;20292;-46
2022/06/25 12:34:50;;;;;;;2.40;2.20;;;31.10;45.10;;;;;;5095146;28;20497;-47
2022/06/25 12:37:31;;;;;;;2.00;1.60;;;31.10;44.30;;;;;;5094238;28;20405;-48
2022/06/25 12:39:57;;;;;;;2.10;1.90;;;30.50;44.40;;;;;;5097023;28;20874;-47
2022/06/25 12:42:24;;;;;;;1.97;1.80;;;30.60;45.00;;;;;;5098471;28;20375;-47
2022/06/25 12:44:52;;;;;;;2.10;1.90;;;31.10;46.00;;;;;;5096608;28;20748;-46
2022/06/25 12:47:19;;;;;;;2.10;1.80;;;31.50;43.20;;;;;;5098612;28;20382;-46
2022/06/25 12:49:51;;;;;;;1.80;1.70;;;31.10;44.70;;;;;;5097259;28;20716;-45
2022/06/25 12:52:36;;;;;;;2.20;2.00;;;31.10;43.90;;;;;;5097101;28;20411;-46
2022/06/25 12:55:03;;;;;;;3.07;2.20;;;31.30;43.50;;;;;;5096863;28;20415;-45
2022/06/25 12:57:36;;;;;;;2.70;1.73;;;31.40;43.40;;;;;;5095703;28;20519;-47
2022/06/25 13:00:05;;;;;;;2.23;2.03;;;31.50;44.80;;;;;;5095057;28;20408;-51
2022/06/25 13:02:31;;;;;;;2.10;1.90;;;32.10;43.40;;;;;;5096541;28;20804;-49
2022/06/25 13:04:58;;;;;;;2.73;2.40;;;32.60;43.40;;;;;;5096382;28;20446;-49